Aérodrome :
LOGIN :

S'inscrire | Disclaimer

   EN    FR    IT 

 










Légende :    VFR   VFR Marginal   IFR   IFR Intensif   IFR Très Intensif
Visi : 
Plafond : 
>= 8 km
>= 3000ft
5 à 8 km
1000 à 3000 ft
1500m à 5 km
500 à 1000 ft
800 à 1500m
200 à 500 ft
< 800m
< 200 ft
Symboles :   Orages  Brouillard  Fortes neiges  Fortes précipitations  Vent > 20 kt
SIGMETs :   Divers  Orages  Givrage  Turbulence  Onde Orograph.  Cendres Volcan.






- Altitude de l'aérodrome : 306 ft
- Code IATA : EMA


EGNX - Nottingham East Midlands

DERNIER METAR :
  • 151450Z 21014KT 9999 FEW022 BKN034 06/02 Q0994

METARs EXPIRÉS :
  • 151420Z 20008KT 9999 FEW012 SCT026 06/04 Q0993
  • 151350Z 20013KT 9999 -SHRA FEW023 BKN038 06/03 Q0994
  • 151320Z 21015KT 9999 FEW020 SCT036 06/03 Q0993
  • 151250Z 21017KT 9999 FEW020 06/03 Q0993
  • 151220Z 21018KT 9999 FEW018 06/03 Q0993
  • 151150Z 22015KT CAVOK 06/03 Q0992

TAF TAF EGNX
Valide du 15 à 12h jusqu'au 16 à 12h UTC


151056Z 1512/1612 21014KT 9999 FEW030
PROB40
TEMPO 1514/1524 23015G25KT 6000 SHRA BKN014
PROB30 1602/1608 8000
ATIS : +44 1332 852 852 (ext 3201)



MET'MAP, la Météo Aéronautique d'un coup d'oeil ! - Copyright ORBIFLY Décembre 2007 - Disclaimer

ORBIFLY MET'MAP TEAM :

Programmation & Développement : Alexandra Zaïnal
Sur une idée originale de : Baudouin d'Aumeries
Assistance à la programmation : Marc-Olivier Méhu
Soutien technique & logistique : Manuel Goepfert

Contact : metmap@orbifly.com




SOURCES & CREDITS :

   NOAA